Mitchel — WDE7728 — position and weather

sailwx.info

Track history (hours):
 
Tides and Currents Weather Stations Pressure Air Temp Water Temp Dewpoint Dewpoint Depression Visibility Wind Speed Wind Dir Waves Ship Positions

Mitchel

Owner: AMERICAN TUGS INC., SAN JUAN, PR. More information available from US FCC via Universal Licensing System and Coast Guard Vessel Documentation Center.

Last reported at 2015-May-25 20:31 UTC. Time now 2015-May-25 23:38 UTC.
Position N 10°39' W 061°31'.

Length 27 m; draft 3.1 m.

Type: Tug. MMSI: 367346890.

Date/timePositionNaut miles runAvg speedWind from/ knotsBaromVisibWave heightAir tempDewpointWater temp
2015-May-25 20:31N 10°39' W 061°31'0 0.0
2015-May-25 19:31N 10°39' W 061°31'0 0.0
2015-May-25 18:33N 10°39' W 061°31'0 0.0
2015-May-25 17:33N 10°39' W 061°31'0 0.0
2015-May-25 16:34N 10°39' W 061°31'  
2015-May-22 03:22N 13°53' W 061°07'6 5.0
2015-May-22 02:16N 13°58' W 061°04'4 0.9
2015-May-21 21:26N 14°01' W 061°01'1 1.4
2015-May-21 20:33N 14°01' W 060°60'0 0.0
2015-May-21 19:33N 14°01' W 060°60'0 0.0
2015-May-21 18:22N 14°01' W 060°60'2 1.7
2015-May-21 17:14N 13°59' W 061°01'  
2015-May-17 17:12N 14°01' W 061°04'2 2.6
2015-May-17 16:30N 13°59' W 061°05'3 3.1
2015-May-17 15:33N 13°56' W 061°06'3 2.3
2015-May-17 14:09N 13°53' W 061°07'  
Track history (hours):
 
Tides and Currents Weather Stations Pressure Air Temp Water Temp Dewpoint Dewpoint Depression Visibility Wind Speed Wind Dir Waves Ship Positions

Mitchel

Owner: AMERICAN TUGS INC., SAN JUAN, PR. More information available from US FCC via Universal Licensing System and Coast Guard Vessel Documentation Center.

Last reported at 2015-May-25 20:31 UTC. Time now 2015-May-25 23:38 UTC.
Position N 10°39' W 061°31'.

Length 27 m; draft 3.1 m.

Type: Tug. MMSI: 367346890.

Date/timePositionNaut miles runAvg speedWind from/ knotsBaromVisibWave heightAir tempDewpointWater temp
2015-May-25 20:31N 10°39' W 061°31'0 0.0
2015-May-25 19:31N 10°39' W 061°31'0 0.0
2015-May-25 18:33N 10°39' W 061°31'0 0.0
2015-May-25 17:33N 10°39' W 061°31'0 0.0
2015-May-25 16:34N 10°39' W 061°31'  
2015-May-22 03:22N 13°53' W 061°07'6 5.0
2015-May-22 02:16N 13°58' W 061°04'4 0.9
2015-May-21 21:26N 14°01' W 061°01'1 1.4
2015-May-21 20:33N 14°01' W 060°60'0 0.0
2015-May-21 19:33N 14°01' W 060°60'0 0.0
2015-May-21 18:22N 14°01' W 060°60'2 1.7
2015-May-21 17:14N 13°59' W 061°01'  
2015-May-17 17:12N 14°01' W 061°04'2 2.6
2015-May-17 16:30N 13°59' W 061°05'3 3.1
2015-May-17 15:33N 13°56' W 061°06'3 2.3
2015-May-17 14:09N 13°53' W 061°07'  

Dump ship's entire track history